Terminal Aerodrome Forecast
Issued by NWS Atlanta, GA

Home | Current Version | Previous Version | Text Only | Print | Product List | Glossary On
Versions: 1 2 3 4 5 6 7 8 9 10 11 12 13 14 15 16 17 18 19 20 21 22 23 24 25 26 27 28 29 30 31 32 33 34 35 36 37 38
000
FTUS42 KFFC 220710 AAA
TAFATL
TAF AMD
KATL 220710Z 2207/2312 09008KT 6SM -RA BR BKN015
     FM220900 09008KT 5SM -RA BR OVC007
     FM221200 09008KT 3SM -RA BR OVC004
     FM221500 09010KT 5SM -RA BR OVC007
     FM221800 08008KT P6SM VCSH OVC012
     FM222100 08007KT P6SM BKN025
     FM230200 08006KT P6SM BKN015
     FM230600 08004KT 4SM BR OVC005=

USA.gov is the U.S. government's official web portal to all federal, state and local government web resources and services.